createdAt,value
2022-08-05T00:04:15.567Z,90.70
2022-08-05T00:08:35.600Z,88.80
2022-08-05T00:12:56.459Z,85.00
2022-08-05T00:17:19.448Z,75.90
2022-08-05T00:21:37.567Z,72.60
2022-08-05T00:25:54.603Z,75.40
2022-08-05T00:30:11.869Z,73.10
2022-08-05T00:34:53.754Z,73.10
2022-08-05T00:39:13.726Z,74.30
2022-08-05T00:43:46.703Z,74.10
2022-08-05T00:48:10.345Z,78.60
2022-08-05T00:52:28.677Z,84.70
2022-08-05T00:56:51.514Z,87.70
2022-08-05T01:01:10.415Z,91.10
2022-08-05T01:05:27.796Z,92.50
2022-08-05T01:09:44.905Z,93.30
2022-08-05T01:14:27.781Z,93.70
2022-08-05T01:18:48.115Z,94.70
2022-08-05T01:23:15.039Z,97.30
2022-08-05T01:28:05.918Z,98.40
2022-08-05T01:32:27.871Z,94.90
2022-08-05T01:36:47.721Z,93.70
2022-08-05T01:41:05.712Z,93.40
2022-08-05T01:45:24.814Z,93.70
2022-08-05T01:50:01.826Z,93.70
2022-08-05T01:54:25.553Z,92.50
2022-08-05T01:58:45.622Z,92.70
2022-08-05T02:03:29.123Z,94.70
2022-08-05T02:08:00.392Z,94.90
2022-08-05T02:12:21.937Z,97.10
2022-08-05T02:16:52.332Z,98.20
2022-08-05T02:21:13.271Z,99.90
2022-08-05T02:25:35.922Z,99.90
2022-08-05T02:30:08.826Z,99.90
2022-08-05T02:34:28.745Z,99.90
2022-08-05T02:38:53.478Z,99.90
2022-08-05T02:43:11.800Z,99.90
2022-08-05T02:48:06.839Z,99.90
2022-08-05T02:52:29.935Z,99.90
2022-08-05T02:56:48.441Z,99.90
2022-08-05T03:01:06.286Z,99.90
2022-08-05T03:06:54.598Z,99.90
2022-08-05T03:10:00.469Z,99.90
2022-08-05T03:14:19.300Z,99.90
2022-08-05T03:18:36.313Z,99.90
2022-08-05T03:22:59.178Z,99.90
2022-08-05T03:27:16.382Z,99.90
2022-08-05T03:31:55.537Z,99.90
2022-08-05T03:36:13.466Z,99.90
2022-08-05T03:40:32.187Z,99.90
2022-08-05T03:44:49.670Z,99.90
2022-08-05T03:49:08.937Z,99.90
2022-08-05T03:55:34.025Z,99.90
2022-08-05T03:58:16.988Z,99.90
2022-08-05T04:02:38.814Z,99.90
2022-08-05T04:07:03.128Z,99.90
2022-08-05T04:11:21.050Z,99.90
2022-08-05T04:15:39.838Z,99.90
2022-08-05T04:20:20.376Z,99.90
2022-08-05T04:24:44.390Z,99.90
2022-08-05T04:29:09.357Z,99.90
2022-08-05T04:33:54.603Z,99.90
2022-08-05T04:38:06.800Z,99.90
2022-08-05T04:42:25.481Z,99.90
2022-08-05T04:46:42.935Z,99.90
2022-08-05T04:51:11.142Z,99.90
2022-08-05T04:56:14.874Z,99.90
2022-08-05T05:00:06.504Z,99.90
2022-08-05T05:04:24.543Z,99.90
2022-08-05T05:08:42.795Z,99.90
2022-08-05T05:13:00.028Z,99.90
2022-08-05T05:17:24.283Z,99.90
2022-08-05T05:21:41.961Z,99.90
2022-08-05T05:26:03.563Z,99.90
2022-08-05T05:30:30.802Z,99.90
2022-08-05T05:34:52.502Z,99.90
2022-08-05T05:39:11.018Z,99.90
2022-08-05T05:43:56.630Z,99.90
2022-08-05T05:48:08.836Z,99.90
2022-08-05T05:52:28.525Z,99.90
2022-08-05T05:56:47.342Z,99.90
2022-08-05T06:01:12.584Z,99.90
2022-08-05T06:05:31.891Z,99.90
2022-08-05T06:09:59.927Z,99.90
2022-08-05T06:14:18.746Z,99.90
2022-08-05T06:18:39.453Z,99.90
2022-08-05T06:22:58.008Z,99.90
2022-08-05T06:27:17.199Z,99.90
2022-08-05T06:31:52.606Z,99.90
2022-08-05T06:36:10.290Z,99.90
2022-08-05T06:40:27.707Z,99.90
2022-08-05T06:44:45.157Z,99.90
2022-08-05T06:49:07.663Z,99.90
2022-08-05T06:53:28.547Z,99.90
2022-08-05T06:58:03.859Z,99.90
2022-08-05T07:02:23.535Z,99.90
2022-08-05T07:06:42.012Z,99.90
2022-08-05T07:10:59.080Z,99.90
2022-08-05T07:16:00.928Z,99.90
2022-08-05T07:20:32.470Z,99.90
2022-08-05T07:24:53.588Z,99.90
2022-08-05T07:29:11.096Z,99.90
2022-08-05T07:33:29.476Z,99.90
2022-08-05T07:37:54.306Z,99.90
2022-08-05T07:42:14.144Z,99.90
2022-08-05T07:46:33.698Z,99.90
2022-08-05T07:50:50.863Z,99.90
2022-08-05T07:55:44.457Z,99.90
2022-08-05T07:59:46.986Z,99.90
2022-08-05T08:04:06.103Z,99.90
2022-08-05T08:08:26.084Z,99.90
2022-08-05T08:12:49.288Z,99.90
2022-08-05T08:17:15.750Z,98.30
2022-08-05T08:21:33.355Z,96.60
2022-08-05T08:26:00.697Z,96.30
2022-08-05T08:30:32.437Z,97.40
2022-08-05T08:34:53.498Z,94.80
2022-08-05T08:39:15.844Z,95.40
2022-08-05T08:45:20.709Z,94.50
2022-08-05T08:48:41.573Z,91.40
2022-08-05T08:52:54.034Z,89.50
2022-08-05T08:57:13.381Z,92.40
2022-08-05T09:01:31.663Z,88.70
2022-08-05T09:06:07.797Z,86.30
2022-08-05T09:10:27.870Z,83.90
2022-08-05T09:14:56.508Z,85.00
2022-08-05T09:19:17.038Z,83.10
2022-08-05T09:23:37.433Z,80.40
2022-08-05T09:28:15.281Z,76.90
2022-08-05T09:32:41.004Z,76.10
2022-08-05T09:37:16.901Z,71.00
2022-08-05T09:41:39.122Z,71.20
2022-08-05T09:46:06.728Z,70.40
2022-08-05T09:50:38.231Z,68.30
2022-08-05T09:55:56.715Z,66.80
2022-08-05T09:59:47.371Z,63.40
2022-08-05T10:04:12.143Z,63.30
2022-08-05T10:08:36.553Z,66.30
2022-08-05T10:12:56.914Z,61.30
2022-08-05T10:17:37.221Z,64.70
2022-08-05T10:21:52.571Z,64.90
2022-08-05T10:26:14.027Z,59.40
2022-08-05T10:31:20.262Z,61.70
2022-08-05T10:35:09.221Z,67.10
2022-08-05T10:39:58.906Z,66.70
2022-08-05T10:44:12.869Z,68.20
2022-08-05T10:48:52.816Z,66.30
2022-08-05T10:53:32.779Z,59.90
2022-08-05T10:58:11.549Z,62.10
2022-08-05T11:02:38.396Z,59.00
2022-08-05T11:07:04.411Z,59.00
2022-08-05T11:11:41.996Z,57.50
2022-08-05T11:16:47.920Z,58.80
2022-08-05T11:21:02.677Z,57.50
2022-08-05T11:26:04.180Z,58.50
2022-08-05T11:30:11.103Z,60.60
2022-08-05T11:34:51.665Z,56.20
2022-08-05T11:39:12.149Z,56.50
2022-08-05T11:44:00.751Z,60.80
2022-08-05T11:48:09.373Z,56.90
2022-08-05T11:52:29.822Z,56.40
2022-08-05T11:56:52.105Z,55.90
2022-08-05T12:01:10.791Z,56.80
2022-08-05T12:05:36.382Z,56.60
2022-08-05T12:10:01.963Z,57.90
2022-08-05T12:14:25.374Z,56.00
2022-08-05T12:18:49.635Z,56.60
2022-08-05T12:23:10.918Z,52.80
2022-08-05T12:27:32.658Z,55.50
2022-08-05T12:31:53.964Z,48.60
2022-08-05T12:36:11.749Z,51.40
2022-08-05T12:40:29.732Z,51.10
2022-08-05T12:44:47.444Z,52.00
2022-08-05T12:49:13.823Z,52.80
2022-08-05T12:53:37.139Z,54.80
2022-08-05T12:58:50.396Z,55.40
2022-08-05T13:02:35.485Z,55.40
2022-08-05T13:06:53.346Z,54.50
2022-08-05T13:11:16.703Z,52.90
2022-08-05T13:15:50.467Z,57.60
2022-08-05T13:20:15.024Z,53.90
2022-08-05T13:24:57.181Z,53.30
2022-08-05T13:29:19.002Z,55.60
2022-08-05T13:34:23.298Z,55.70
2022-08-05T13:38:28.271Z,53.90
2022-08-05T13:42:48.239Z,54.00
2022-08-05T13:47:35.008Z,51.40
2022-08-05T13:51:52.661Z,53.30
2022-08-05T13:56:18.330Z,51.40
2022-08-05T14:00:36.588Z,50.10
2022-08-05T14:05:12.031Z,47.50
2022-08-05T14:09:33.765Z,53.20
2022-08-05T14:14:00.207Z,49.20
2022-08-05T14:18:23.054Z,49.30
2022-08-05T14:22:42.343Z,48.30
2022-08-05T14:27:18.141Z,48.80
2022-08-05T14:32:03.114Z,47.60
2022-08-05T14:36:12.867Z,51.60
2022-08-05T14:40:29.934Z,47.60
2022-08-05T14:44:47.030Z,49.90
2022-08-05T14:49:07.200Z,49.20
2022-08-05T14:53:24.731Z,50.00
2022-08-05T14:57:54.741Z,51.50
2022-08-05T15:02:15.006Z,51.20
2022-08-05T15:06:33.217Z,52.10
2022-08-05T15:10:50.273Z,51.80
2022-08-05T15:15:13.622Z,53.60
2022-08-05T15:19:32.677Z,53.60
2022-08-05T15:23:49.994Z,53.50
2022-08-05T15:28:09.135Z,54.90
2022-08-05T15:32:31.644Z,54.20
2022-08-05T15:36:48.944Z,51.70
2022-08-05T15:41:22.097Z,51.40
2022-08-05T15:45:45.738Z,51.90
2022-08-05T15:50:03.616Z,52.90
2022-08-05T15:54:20.927Z,53.70
2022-08-05T15:58:52.248Z,54.60
2022-08-05T16:03:09.357Z,55.00
2022-08-05T16:07:26.393Z,55.10
2022-08-05T16:11:50.933Z,55.40
2022-08-05T16:16:11.968Z,55.00
2022-08-05T16:20:29.077Z,55.80
2022-08-05T16:24:51.248Z,55.20
2022-08-05T16:29:09.100Z,54.40
2022-08-05T16:33:28.522Z,54.30
2022-08-05T16:38:15.980Z,55.10
2022-08-05T16:42:36.321Z,55.30
2022-08-05T16:46:55.629Z,57.40
2022-08-05T16:51:14.462Z,68.90
2022-08-05T16:55:46.764Z,78.40
2022-08-05T17:00:08.588Z,86.70
2022-08-05T17:04:28.365Z,96.50
2022-08-05T17:08:52.801Z,99.90
2022-08-05T17:13:16.618Z,99.90
2022-08-05T17:17:42.532Z,99.90
2022-08-05T17:22:00.061Z,99.90
2022-08-05T17:26:17.230Z,99.90
2022-08-05T17:30:34.642Z,99.90
2022-08-05T17:35:07.783Z,99.90
2022-08-05T17:39:33.605Z,99.90
2022-08-05T17:43:54.280Z,99.90
2022-08-05T17:48:11.452Z,99.90
2022-08-05T17:52:28.497Z,99.90
2022-08-05T17:56:45.504Z,99.90
2022-08-05T18:01:09.982Z,99.90
2022-08-05T18:05:28.097Z,99.90
2022-08-05T18:09:59.913Z,99.90
2022-08-05T18:14:20.451Z,99.90
2022-08-05T18:18:39.876Z,99.90
2022-08-05T18:22:57.379Z,99.90
2022-08-05T18:27:18.881Z,99.90
2022-08-05T18:31:36.233Z,99.90
2022-08-05T18:36:03.711Z,99.90
2022-08-05T18:40:33.857Z,99.90
2022-08-05T18:44:59.520Z,99.90
2022-08-05T18:49:44.448Z,99.90
2022-08-05T18:54:12.735Z,99.90
2022-08-05T18:58:30.299Z,99.90
2022-08-05T19:02:53.292Z,99.90
2022-08-05T19:07:11.172Z,99.90
2022-08-05T19:11:36.988Z,99.90
2022-08-05T19:16:24.438Z,99.90
2022-08-05T19:20:47.208Z,99.90
2022-08-05T19:25:04.427Z,99.90
2022-08-05T19:29:21.539Z,99.90
2022-08-05T19:33:38.584Z,99.90
2022-08-05T19:38:06.152Z,99.90
2022-08-05T19:42:35.391Z,99.90
2022-08-05T19:46:53.297Z,99.90
2022-08-05T19:51:21.958Z,99.90
2022-08-05T19:56:15.739Z,99.90
2022-08-05T20:00:24.955Z,99.90
2022-08-05T20:04:45.740Z,99.90
2022-08-05T20:09:06.264Z,99.90
2022-08-05T20:13:58.070Z,99.90
2022-08-05T20:18:10.556Z,99.90
2022-08-05T20:22:46.928Z,99.90
2022-08-05T20:27:04.332Z,99.90
2022-08-05T20:31:42.894Z,99.90
2022-08-05T20:36:05.905Z,99.90
2022-08-05T20:40:23.580Z,99.90
2022-08-05T20:44:40.766Z,99.90
2022-08-05T20:48:58.199Z,99.90
2022-08-05T20:53:16.345Z,99.90
2022-08-05T20:57:52.601Z,99.90
2022-08-05T21:02:14.272Z,99.90
2022-08-05T21:06:35.343Z,99.90
2022-08-05T21:10:52.776Z,99.90
2022-08-05T21:15:09.846Z,99.90
2022-08-05T21:19:26.872Z,99.90
2022-08-05T21:23:48.134Z,99.90
2022-08-05T21:28:05.633Z,99.90
2022-08-05T21:32:26.795Z,99.90
2022-08-05T21:36:48.956Z,99.90
2022-08-05T21:41:06.621Z,99.90
2022-08-05T21:45:24.891Z,99.90
2022-08-05T21:50:01.266Z,99.90
2022-08-05T21:54:19.229Z,99.90
2022-08-05T21:58:57.081Z,99.90
2022-08-05T22:03:15.526Z,99.90
2022-08-05T22:07:39.994Z,99.90
2022-08-05T22:12:11.803Z,99.90
2022-08-05T22:16:41.743Z,99.90
2022-08-05T22:21:18.833Z,99.90
2022-08-05T22:26:09.977Z,99.90
2022-08-05T22:30:35.222Z,99.90
2022-08-05T22:34:53.182Z,99.90
2022-08-05T22:39:12.696Z,99.90
2022-08-05T22:43:36.724Z,99.90
2022-08-05T22:47:57.082Z,99.90
2022-08-05T22:52:30.133Z,99.90
2022-08-05T22:56:50.238Z,99.90
2022-08-05T23:01:07.299Z,99.90
2022-08-05T23:05:25.262Z,99.90
2022-08-05T23:09:53.418Z,99.90
2022-08-05T23:14:22.702Z,99.90
2022-08-05T23:18:48.934Z,99.90
2022-08-05T23:23:08.225Z,99.90
2022-08-05T23:27:31.517Z,99.90
2022-08-05T23:32:02.918Z,99.90
2022-08-05T23:36:19.942Z,99.90
2022-08-05T23:40:36.944Z,99.90
2022-08-05T23:44:55.460Z,99.90
2022-08-05T23:49:15.909Z,99.90
2022-08-05T23:53:46.725Z,99.90
2022-08-05T23:58:04.110Z,99.90
